Weches, Texas
Current Conditions -  °F | °C
As of 10:35 AM on Thursday 30 Oct 2014 (Local Time) from KDKR Reporting Station
Clear Clear  
Wind Chill: 68°   Ceiling: Unl
Heat Index: 68°   Visibility: 10mi
Dew Point: 48°   Wind: 7mph
Humidity: 49%   Direction: 120°ESE
Pressure: 30.21"   Gusts: NA
Location:  31.4982°N, 95.4177°W
Report Text: KDKR 301535Z AUTO 12006KT 10SM CLR 20/09 A3021 RMK AO2
Loading
Personal Weather Stations






























Interactive Weather Map
Tropical Storm Tracking
New forecast layout! Learn more

10-Day Weather Forecast

Advertisements
Track Severe Weather on mobile